Time;durP1;ratioP1;P1;durP2;ratioP2;P2;SDS_P1;SDS_P2;PMS_P1;PMS_P2;Temp;Humidity;BMP_temperature;BMP_pressure;BME280_temperature;BME280_humidity;BME280_pressure;Samples;Min_cycle;Max_cycle;Signal;HPM_P1;HPM_P2
2022/11/12 00:00:27;;;;;;;;;;;;;;;;;;5071649;28;19966;-76
2022/11/12 00:02:53;;;;;;;;;;;;;;;;;;5073259;28;20281;-77
2022/11/12 00:05:19;;;;;;;;;;;;;;;;;;5072416;28;19915;-76
2022/11/12 00:07:45;;;;;;;;;;;;;;;;;;5072262;28;20518;-76
2022/11/12 00:10:11;;;;;;;;;;;;;;;;;;5072696;28;19908;-76
2022/11/12 00:12:36;;;;;;;;;;;;;;;;;;5071052;28;19936;-76
2022/11/12 00:15:02;;;;;;;;;;;;;;;;;;5072440;28;19961;-76
2022/11/12 00:17:28;;;;;;;;;;;;;;;;;;5071438;28;19913;-76
2022/11/12 00:19:54;;;;;;;;;;;;;;;;;;5072583;28;19954;-75
2022/11/12 00:22:20;;;;;;;;;;;;;;;;;;5070317;28;19915;-76
2022/11/12 00:24:46;;;;;;;;;;;;;;;;;;5071174;28;19992;-76
2022/11/12 00:27:12;;;;;;;;;;;;;;;;;;5072634;28;19916;-76
2022/11/12 00:29:38;;;;;;;;;;;;;;;;;;5072309;28;20289;-76
2022/11/12 00:32:04;;;;;;;;;;;;;;;;;;5072477;28;19944;-76
2022/11/12 00:34:30;;;;;;;;;;;;;;;;;;5070768;28;19916;-76
2022/11/12 00:36:56;;;;;;;;;;;;;;;;;;5072405;28;19916;-76
2022/11/12 00:39:22;;;;;;;;;;;;;;;;;;5072125;28;19913;-76
2022/11/12 00:41:47;;;;;;;;;;;;;;;;;;5072001;28;19913;-76
2022/11/12 00:44:13;;;;;;;;;;;;;;;;;;5071897;28;19948;-76
2022/11/12 00:46:39;;;;;;;;;;;;;;;;;;5071926;28;20494;-76
2022/11/12 00:49:05;;;;;;;;;;;;;;;;;;5072484;28;19909;-76
2022/11/12 00:51:31;;;;;;;;;;;;;;;;;;5071848;28;20372;-76
2022/11/12 00:53:57;;;;;;;;;;;;;;;;;;5072080;28;19909;-76
2022/11/12 00:56:23;;;;;;;;;;;;;;;;;;5072002;28;20349;-75
2022/11/12 00:58:49;;;;;;;;;;;;;;;;;;5071997;28;19919;-76
2022/11/12 01:01:14;;;;;;;;;;;;;;;;;;5071808;28;19999;-76
2022/11/12 01:03:40;;;;;;;;;;;;;;;;;;5070709;28;20281;-76
2022/11/12 01:06:06;;;;;;;;;;;;;;;;;;5070868;28;19908;-76
2022/11/12 01:08:32;;;;;;;;;;;;;;;;;;5072268;28;19931;-76
2022/11/12 01:10:58;;;;;;;;;;;;;;;;;;5072327;28;20391;-76
2022/11/12 01:13:24;;;;;;;;;;;;;;;;;;5072170;28;19935;-76
2022/11/12 01:15:50;;;;;;;;;;;;;;;;;;5072072;28;19908;-75
2022/11/12 01:18:16;;;;;;;;;;;;;;;;;;5071817;28;20261;-76
2022/11/12 01:20:42;;;;;;;;;;;;;;;;;;5070629;28;19913;-77
2022/11/12 01:23:08;;;;;;;;;;;;;;;;;;5071749;28;20327;-77
2022/11/12 01:25:33;;;;;;;;;;;;;;;;;;5071872;28;19916;-76
2022/11/12 01:27:59;;;;;;;;;;;;;;;;;;5070487;28;19909;-76
2022/11/12 01:30:25;;;;;;;;;;;;;;;;;;5071951;28;20007;-76
2022/11/12 01:32:51;;;;;;;;;;;;;;;;;;5072876;28;20292;-76
2022/11/12 01:35:17;;;;;;;;;;;;;;;;;;5074305;28;19908;-76
2022/11/12 01:37:43;;;;;;;;;;;;;;;;;;5075635;28;19995;-76
2022/11/12 01:40:09;;;;;;;;;;;;;;;;;;5075447;28;19912;-77
2022/11/12 01:42:35;;;;;;;;;;;;;;;;;;5075474;28;20368;-76
2022/11/12 01:45:01;;;;;;;;;;;;;;;;;;5075403;28;19908;-76
2022/11/12 01:47:26;;;;;;;;;;;;;;;;;;5073724;28;20472;-76
2022/11/12 01:49:52;;;;;;;;;;;;;;;;;;5074258;28;20012;-75
2022/11/12 01:52:18;;;;;;;;;;;;;;;;;;5074258;28;20358;-76
2022/11/12 01:54:45;;;;;;;;;;;;;;;;;;5075153;28;19909;-77
2022/11/12 01:57:11;;;;;;;;;;;;;;;;;;5074070;28;19916;-76
2022/11/12 01:59:37;;;;;;;;;;;;;;;;;;5073844;28;19912;-76
2022/11/12 02:02:03;;;;;;;;;;;;;;;;;;5075016;28;19908;-76
2022/11/12 02:04:29;;;;;;;;;;;;;;;;;;5073530;28;19908;-76
2022/11/12 02:06:55;;;;;;;;;;;;;;;;;;5075462;28;19908;-76
2022/11/12 02:09:21;;;;;;;;;;;;;;;;;;5075133;28;19909;-76
2022/11/12 02:11:47;;;;;;;;;;;;;;;;;;5075092;28;20003;-76
2022/11/12 02:14:13;;;;;;;;;;;;;;;;;;5073776;28;19908;-77
2022/11/12 02:16:39;;;;;;;;;;;;;;;;;;5073380;28;19961;-76
2022/11/12 02:19:04;;;;;;;;;;;;;;;;;;5074624;28;20010;-76
2022/11/12 02:21:30;;;;;;;;;;;;;;;;;;5073495;28;19959;-77
2022/11/12 02:23:56;;;;;;;;;;;;;;;;;;5074573;28;19916;-76
2022/11/12 02:26:22;;;;;;;;;;;;;;;;;;5074564;28;19908;-76
2022/11/12 02:28:48;;;;;;;;;;;;;;;;;;5073128;28;19912;-76
2022/11/12 02:31:14;;;;;;;;;;;;;;;;;;5074816;28;19948;-76
2022/11/12 02:33:40;;;;;;;;;;;;;;;;;;5074584;28;19927;-77
2022/11/12 02:36:06;;;;;;;;;;;;;;;;;;5074652;28;19915;-77
2022/11/12 02:38:31;;;;;;;;;;;;;;;;;;5072953;28;19978;-77
2022/11/12 02:40:57;;;;;;;;;;;;;;;;;;5074413;28;20365;-77
2022/11/12 02:43:23;;;;;;;;;;;;;;;;;;5073003;28;19999;-77
2022/11/12 02:45:49;;;;;;;;;;;;;;;;;;5071633;28;20376;-77
2022/11/12 02:48:15;;;;;;;;;;;;;;;;;;5074046;28;19916;-78
2022/11/12 02:50:41;;;;;;;;;;;;;;;;;;5072869;28;19909;-76
2022/11/12 02:53:07;;;;;;;;;;;;;;;;;;5074024;28;20072;-76
2022/11/12 02:55:33;;;;;;;;;;;;;;;;;;5073948;28;19952;-76
2022/11/12 02:57:59;;;;;;;;;;;;;;;;;;5073891;28;19913;-77
2022/11/12 03:00:24;;;;;;;;;;;;;;;;;;5074016;28;19920;-76
2022/11/12 03:02:57;;;;;;;;;;;;;;;;;;5073787;28;19909;-76
2022/11/12 03:05:23;;;;;;;;;;;;;;;;;;5073749;28;19991;-76
2022/11/12 03:07:49;;;;;;;;;;;;;;;;;;5073708;28;19989;-76
2022/11/12 03:10:15;;;;;;;;;;;;;;;;;;5072601;28;19915;-76
2022/11/12 03:12:41;;;;;;;;;;;;;;;;;;5073723;28;19908;-77
2022/11/12 03:15:07;;;;;;;;;;;;;;;;;;5072345;28;19905;-76
2022/11/12 03:17:33;;;;;;;;;;;;;;;;;;5073653;28;19934;-76
2022/11/12 03:19:58;;;;;;;;;;;;;;;;;;5072291;28;20358;-76
2022/11/12 03:22:24;;;;;;;;;;;;;;;;;;5072260;28;19909;-76
2022/11/12 03:24:50;;;;;;;;;;;;;;;;;;5073123;28;20284;-76
2022/11/12 03:27:16;;;;;;;;;;;;;;;;;;5072439;28;19913;-77
2022/11/12 03:29:42;;;;;;;;;;;;;;;;;;5072981;28;19971;-76
2022/11/12 03:32:08;;;;;;;;;;;;;;;;;;5072122;28;19957;-75
2022/11/12 03:34:34;;;;;;;;;;;;;;;;;;5071738;28;20376;-76
2022/11/12 03:36:59;;;;;;;;;;;;;;;;;;5073383;28;19947;-76
2022/11/12 03:39:25;;;;;;;;;;;;;;;;;;5072054;28;19919;-76
2022/11/12 03:41:51;;;;;;;;;;;;;;;;;;5073302;28;19961;-78
2022/11/12 03:44:17;;;;;;;;;;;;;;;;;;5072458;28;19915;-76
2022/11/12 03:46:43;;;;;;;;;;;;;;;;;;5072749;28;19916;-76
2022/11/12 03:49:09;;;;;;;;;;;;;;;;;;5071839;28;19908;-76
2022/11/12 03:51:35;;;;;;;;;;;;;;;;;;5072799;28;20007;-76
2022/11/12 03:54:01;;;;;;;;;;;;;;;;;;5071612;28;19915;-76
2022/11/12 03:56:26;;;;;;;;;;;;;;;;;;5071964;28;19962;-77
2022/11/12 03:58:52;;;;;;;;;;;;;;;;;;5072701;28;19936;-75
2022/11/12 04:01:18;;;;;;;;;;;;;;;;;;5072795;28;20007;-76
2022/11/12 04:03:44;;;;;;;;;;;;;;;;;;5072825;28;19908;-76
2022/11/12 04:08:54;;;;;;;;;;;;;;;;;;5072650;28;20012;-76
2022/11/12 04:11:20;;;;;;;;;;;;;;;;;;5073441;28;19935;-76
2022/11/12 04:13:46;;;;;;;;;;;;;;;;;;5073441;28;19914;-76
2022/11/12 04:21:50;;;;;;;;;;;;;;;;;;5072494;28;20003;-76
2022/11/12 04:27:01;;;;;;;;;;;;;;;;;;5076175;28;19951;-76
2022/11/12 04:32:11;;;;;;;;;;;;;;;;;;5080144;28;19999;-77
2022/11/12 04:34:37;;;;;;;;;;;;;;;;;;5078048;28;19909;-76
2022/11/12 04:37:03;;;;;;;;;;;;;;;;;;5071628;28;20310;-76
2022/11/12 04:39:29;;;;;;;;;;;;;;;;;;5071834;28;19913;-76
2022/11/12 04:47:24;;;;;;;;;;;;;;;;;;5071713;28;19915;-77
2022/11/12 04:49:50;;;;;;;;;;;;;;;;;;5072300;28;19909;-76
2022/11/12 04:52:16;;;;;;;;;;;;;;;;;;5072365;28;19904;-77
2022/11/12 04:54:42;;;;;;;;;;;;;;;;;;5070816;28;19999;-77
2022/11/12 04:57:08;;;;;;;;;;;;;;;;;;5071123;28;19905;-76
2022/11/12 04:59:34;;;;;;;;;;;;;;;;;;5072122;28;19917;-76
2022/11/12 05:01:59;;;;;;;;;;;;;;;;;;5072388;28;19962;-76
2022/11/12 05:04:27;;;;;;;;;;;;;;;;;;5070817;28;20318;-77
2022/11/12 05:06:53;;;;;;;;;;;;;;;;;;5070932;28;19912;-76
2022/11/12 05:09:19;;;;;;;;;;;;;;;;;;5074252;28;19915;-77
2022/11/12 05:11:45;;;;;;;;;;;;;;;;;;5076164;28;19908;-76
2022/11/12 05:14:11;;;;;;;;;;;;;;;;;;5075992;28;19963;-76
2022/11/12 05:16:37;;;;;;;;;;;;;;;;;;5074665;28;19915;-76
2022/11/12 05:19:03;;;;;;;;;;;;;;;;;;5075855;28;19959;-77
2022/11/12 05:24:13;;;;;;;;;;;;;;;;;;5075657;28;20070;-76
2022/11/12 05:26:39;;;;;;;;;;;;;;;;;;5074870;28;20521;-76
2022/11/12 05:29:05;;;;;;;;;;;;;;;;;;5074383;28;19916;-77
2022/11/12 05:31:31;;;;;;;;;;;;;;;;;;5074651;28;20010;-76
2022/11/12 05:33:57;;;;;;;;;;;;;;;;;;5075774;28;19909;-76
2022/11/12 05:36:22;;;;;;;;;;;;;;;;;;5074285;28;19912;-77
2022/11/12 05:38:48;;;;;;;;;;;;;;;;;;5075400;28;20384;-76
2022/11/12 05:41:14;;;;;;;;;;;;;;;;;;5074317;28;19997;-76
2022/11/12 05:43:40;;;;;;;;;;;;;;;;;;5074133;28;19908;-76
2022/11/12 05:46:06;;;;;;;;;;;;;;;;;;5074073;28;19909;-76
2022/11/12 05:48:32;;;;;;;;;;;;;;;;;;5073437;28;20298;-76
2022/11/12 05:50:58;;;;;;;;;;;;;;;;;;5074219;28;19935;-76
2022/11/12 05:53:24;;;;;;;;;;;;;;;;;;5075458;28;20336;-76
2022/11/12 05:55:49;;;;;;;;;;;;;;;;;;5074242;28;19924;-76
2022/11/12 05:58:15;;;;;;;;;;;;;;;;;;5073802;28;19908;-76
2022/11/12 06:00:41;;;;;;;;;;;;;;;;;;5075262;28;19913;-76
2022/11/12 06:03:07;;;;;;;;;;;;;;;;;;5075095;28;19908;-77
2022/11/12 06:05:33;;;;;;;;;;;;;;;;;;5075271;28;20010;-76
2022/11/12 06:07:59;;;;;;;;;;;;;;;;;;5073817;28;19908;-77
2022/11/12 06:10:25;;;;;;;;;;;;;;;;;;5073782;28;19909;-76
2022/11/12 06:12:51;;;;;;;;;;;;;;;;;;5073762;28;19915;-76
2022/11/12 06:15:16;;;;;;;;;;;;;;;;;;5073559;28;19966;-76
2022/11/12 06:17:42;;;;;;;;;;;;;;;;;;5073601;28;19912;-76
2022/11/12 06:20:08;;;;;;;;;;;;;;;;;;5074053;28;20357;-76
2022/11/12 06:22:34;;;;;;;;;;;;;;;;;;5075035;28;19912;-76
2022/11/12 06:25:00;;;;;;;;;;;;;;;;;;5074062;28;19976;-76
2022/11/12 06:27:26;;;;;;;;;;;;;;;;;;5074709;28;19908;-76
2022/11/12 06:29:52;;;;;;;;;;;;;;;;;;5074894;28;19915;-77
2022/11/12 06:32:18;;;;;;;;;;;;;;;;;;5073443;28;19955;-76
2022/11/12 06:34:43;;;;;;;;;;;;;;;;;;5073081;28;19916;-76
2022/11/12 06:37:09;;;;;;;;;;;;;;;;;;5072304;28;20007;-76
2022/11/12 06:39:35;;;;;;;;;;;;;;;;;;5071650;28;19917;-76
2022/11/12 06:42:01;;;;;;;;;;;;;;;;;;5067562;28;19912;-75
2022/11/12 06:44:27;;;;;;;;;;;;;;;;;;5069695;28;19938;-76
2022/11/12 06:46:53;;;;;;;;;;;;;;;;;;5073174;28;19925;-76
2022/11/12 06:49:19;;;;;;;;;;;;;;;;;;5064113;28;19961;-76
2022/11/12 06:51:45;;;;;;;;;;;;;;;;;;5074246;28;19916;-76
2022/11/12 06:54:11;;;;;;;;;;;;;;;;;;5072281;28;19908;-77
2022/11/12 06:56:37;;;;;;;;;;;;;;;;;;5072695;28;19915;-76
2022/11/12 06:59:02;;;;;;;;;;;;;;;;;;5072309;28;19920;-76
2022/11/12 07:01:28;;;;;;;;;;;;;;;;;;5065951;28;19947;-76
2022/11/12 07:03:54;;;;;;;;;;;;;;;;;;5071618;28;19912;-76
2022/11/12 07:06:20;;;;;;;;;;;;;;;;;;5071052;28;19919;-77
2022/11/12 07:08:47;;;;;;;;;;;;;;;;;;5063078;28;19967;-76
2022/11/12 07:11:13;;;;;;;;;;;;;;;;;;5065511;28;19916;-76
2022/11/12 07:13:39;;;;;;;;;;;;;;;;;;5072269;28;19920;-76
2022/11/12 07:16:05;;;;;;;;;;;;;;;;;;5072675;28;20284;-77
2022/11/12 07:18:31;;;;;;;;;;;;;;;;;;5071286;28;19912;-77
2022/11/12 07:20:57;;;;;;;;;;;;;;;;;;5072076;28;19928;-77
2022/11/12 07:23:23;;;;;;;;;;;;;;;;;;5073218;28;20339;-77
2022/11/12 07:25:49;;;;;;;;;;;;;;;;;;5071796;28;19909;-77
2022/11/12 07:28:15;;;;;;;;;;;;;;;;;;5071997;28;19915;-77
2022/11/12 07:30:41;;;;;;;;;;;;;;;;;;5067594;28;20383;-76
2022/11/12 07:33:07;;;;;;;;;;;;;;;;;;5069314;28;19940;-76
2022/11/12 07:35:32;;;;;;;;;;;;;;;;;;5066660;28;19917;-76
2022/11/12 07:37:58;;;;;;;;;;;;;;;;;;5062601;28;19912;-77
2022/11/12 07:40:24;;;;;;;;;;;;;;;;;;5071711;28;19925;-77
2022/11/12 07:42:50;;;;;;;;;;;;;;;;;;5063480;28;19939;-77
2022/11/12 07:45:16;;;;;;;;;;;;;;;;;;5069548;28;19935;-77
2022/11/12 07:47:42;;;;;;;;;;;;;;;;;;5071895;28;19912;-77
2022/11/12 07:50:08;;;;;;;;;;;;;;;;;;5062577;28;19967;-76
2022/11/12 07:52:34;;;;;;;;;;;;;;;;;;5065411;28;19944;-76
2022/11/12 07:55:00;;;;;;;;;;;;;;;;;;5070518;28;19919;-76
2022/11/12 07:57:25;;;;;;;;;;;;;;;;;;5052199;28;19909;-77
2022/11/12 07:59:51;;;;;;;;;;;;;;;;;;5053872;28;19912;-76
2022/11/12 08:02:17;;;;;;;;;;;;;;;;;;5054905;28;20266;-77
2022/11/12 08:04:43;;;;;;;;;;;;;;;;;;5053439;28;19913;-78
2022/11/12 08:07:09;;;;;;;;;;;;;;;;;;5053407;28;19924;-78
2022/11/12 08:09:35;;;;;;;;;;;;;;;;;;5054609;28;20365;-78
2022/11/12 08:12:01;;;;;;;;;;;;;;;;;;5053133;28;19909;-78
2022/11/12 08:14:27;;;;;;;;;;;;;;;;;;5054370;28;19909;-78
2022/11/12 08:16:53;;;;;;;;;;;;;;;;;;5053262;28;19917;-78
2022/11/12 08:19:19;;;;;;;;;;;;;;;;;;5053073;28;20323;-78
2022/11/12 08:21:44;;;;;;;;;;;;;;;;;;5053279;28;19963;-77
2022/11/12 08:24:10;;;;;;;;;;;;;;;;;;5061499;28;19901;-83
2022/11/12 08:26:36;;;;;;;;;;;;;;;;;;5057049;28;19909;-80
2022/11/12 08:29:02;;;;;;;;;;;;;;;;;;5053062;28;19958;-81
2022/11/12 08:31:28;;;;;;;;;;;;;;;;;;5053068;28;19915;-80
2022/11/12 08:33:54;;;;;;;;;;;;;;;;;;5053541;28;19913;-80
2022/11/12 08:36:20;;;;;;;;;;;;;;;;;;5053015;28;19908;-81
2022/11/12 08:38:46;;;;;;;;;;;;;;;;;;5054023;28;19916;-80
2022/11/12 08:41:12;;;;;;;;;;;;;;;;;;5052636;28;19908;-80
2022/11/12 08:43:37;;;;;;;;;;;;;;;;;;5052121;28;19975;-81
2022/11/12 08:46:03;;;;;;;;;;;;;;;;;;5053717;28;19916;-81
2022/11/12 08:48:29;;;;;;;;;;;;;;;;;;5052890;28;19908;-80
2022/11/12 08:50:55;;;;;;;;;;;;;;;;;;5053568;28;20357;-81
2022/11/12 08:53:21;;;;;;;;;;;;;;;;;;5060159;28;19944;-80
2022/11/12 08:55:47;;;;;;;;;;;;;;;;;;5052702;28;20315;-81
2022/11/12 08:58:13;;;;;;;;;;;;;;;;;;5052902;28;19991;-80
2022/11/12 09:00:39;;;;;;;;;;;;;;;;;;5053979;28;19913;-80
2022/11/12 09:03:05;;;;;;;;;;;;;;;;;;5054293;28;20296;-80
2022/11/12 09:05:31;;;;;;;;;;;;;;;;;;5052705;28;19916;-80
2022/11/12 09:07:56;;;;;;;;;;;;;;;;;;5052692;28;19908;-80
2022/11/12 09:10:22;;;;;;;;;;;;;;;;;;5052629;28;20358;-80
2022/11/12 09:12:48;;;;;;;;;;;;;;;;;;5062050;28;20367;-80
2022/11/12 09:15:14;;;;;;;;;;;;;;;;;;5082704;28;19909;-82
2022/11/12 09:17:40;;;;;;;;;;;;;;;;;;5081454;28;19909;-83
2022/11/12 09:20:06;;;;;;;;;;;;;;;;;;5079030;28;19966;-82
2022/11/12 09:22:32;;;;;;;;;;;;;;;;;;5074220;28;19913;-83
2022/11/12 09:24:58;;;;;;;;;;;;;;;;;;5075088;28;19924;-82
2022/11/12 09:27:24;;;;;;;;;;;;;;;;;;5073184;28;20376;-82
2022/11/12 09:29:49;;;;;;;;;;;;;;;;;;5073257;28;19909;-82
2022/11/12 09:32:15;;;;;;;;;;;;;;;;;;5071455;28;20380;-82
2022/11/12 09:34:41;;;;;;;;;;;;;;;;;;5083923;28;19897;-78
2022/11/12 09:37:07;;;;;;;;;;;;;;;;;;5081985;28;20342;-78
2022/11/12 09:39:33;;;;;;;;;;;;;;;;;;5077492;28;19919;-78
2022/11/12 09:41:59;;;;;;;;;;;;;;;;;;5072922;28;20015;-77
2022/11/12 09:44:25;;;;;;;;;;;;;;;;;;5072519;28;20611;-78
2022/11/12 09:46:51;;;;;;;;;;;;;;;;;;5072501;28;19908;-79
2022/11/12 09:49:17;;;;;;;;;;;;;;;;;;5076025;28;19970;-82
2022/11/12 09:51:42;;;;;;;;;;;;;;;;;;5073923;28;20051;-83
2022/11/12 09:54:10;;;;;;;;;;;;;;;;;;5063087;28;19948;-84
2022/11/12 09:56:36;;;;;;;;;;;;;;;;;;5063299;28;19913;-83
2022/11/12 09:59:02;;;;;;;;;;;;;;;;;;5063194;28;19916;-82
2022/11/12 10:01:28;;;;;;;;;;;;;;;;;;5059849;28;19909;-83
2022/11/12 10:03:53;;;;;;;;;;;;;;;;;;5058213;28;19913;-83
2022/11/12 10:06:19;;;;;;;;;;;;;;;;;;5057358;28;19909;-83
2022/11/12 10:08:46;;;;;;;;;;;;;;;;;;5073772;28;19912;-83
2022/11/12 10:11:12;;;;;;;;;;;;;;;;;;5082481;28;19916;-83
2022/11/12 10:13:38;;;;;;;;;;;;;;;;;;5083248;28;19908;-83
2022/11/12 10:18:48;;;;;;;;;;;;;;;;;;5084222;28;20318;-84
2022/11/12 10:21:14;;;;;;;;;;;;;;;;;;5081071;28;19995;-84
2022/11/12 10:23:40;;;;;;;;;;;;;;;;;;5099315;22;19943;-76
2022/11/12 10:26:06;;;;;;;;;;;;;;;;;;5075665;28;19966;-78
2022/11/12 10:28:32;;;;;;;;;;;;;;;;;;5075260;28;19908;-77
2022/11/12 10:30:57;;;;;;;;;;;;;;;;;;5075428;28;19955;-77
2022/11/12 10:33:23;;;;;;;;;;;;;;;;;;5075593;28;19914;-76
2022/11/12 10:35:49;;;;;;;;;;;;;;;;;;5075091;28;19934;-77
2022/11/12 10:38:15;;;;;;;;;;;;;;;;;;5075565;28;19919;-77
2022/11/12 10:40:41;;;;;;;;;;;;;;;;;;5075956;28;20591;-78
2022/11/12 10:43:07;;;;;;;;;;;;;;;;;;5075167;28;19913;-77
2022/11/12 10:45:33;;;;;;;;;;;;;;;;;;5073687;28;20026;-77
2022/11/12 10:47:59;;;;;;;;;;;;;;;;;;5074749;28;19909;-76
2022/11/12 10:50:25;;;;;;;;;;;;;;;;;;5075319;28;20003;-76
2022/11/12 10:52:51;;;;;;;;;;;;;;;;;;5075472;28;19994;-77
2022/11/12 10:55:17;;;;;;;;;;;;;;;;;;5075622;28;19909;-77
2022/11/12 10:57:42;;;;;;;;;;;;;;;;;;5075545;28;20310;-76
2022/11/12 11:00:09;;;;;;;;;;;;;;;;;;5075288;28;19912;-76
2022/11/12 11:02:35;;;;;;;;;;;;;;;;;;5075275;28;19948;-76
2022/11/12 11:05:01;;;;;;;;;;;;;;;;;;5074578;28;20280;-76
2022/11/12 11:07:26;;;;;;;;;;;;;;;;;;5076288;28;19916;-78
2022/11/12 11:09:52;;;;;;;;;;;;;;;;;;5076555;28;19904;-77
2022/11/12 11:12:18;;;;;;;;;;;;;;;;;;5073362;28;19908;-76
2022/11/12 11:14:44;;;;;;;;;;;;;;;;;;5073021;28;20300;-77
2022/11/12 11:17:10;;;;;;;;;;;;;;;;;;5075373;28;19944;-75
2022/11/12 11:19:36;;;;;;;;;;;;;;;;;;5076208;28;20299;-77
2022/11/12 11:22:02;;;;;;;;;;;;;;;;;;5077362;28;19991;-77
2022/11/12 11:24:28;;;;;;;;;;;;;;;;;;5074207;28;20307;-77
2022/11/12 11:26:54;;;;;;;;;;;;;;;;;;5075124;28;20403;-76
2022/11/12 11:29:20;;;;;;;;;;;;;;;;;;5076130;28;19963;-76
2022/11/12 11:31:46;;;;;;;;;;;;;;;;;;5076080;28;19912;-77
2022/11/12 11:34:12;;;;;;;;;;;;;;;;;;5075564;28;19909;-76
2022/11/12 11:36:38;;;;;;;;;;;;;;;;;;5073236;28;19952;-79
2022/11/12 11:39:03;;;;;;;;;;;;;;;;;;5072553;28;19909;-76
2022/11/12 11:41:29;;;;;;;;;;;;;;;;;;5073838;28;19909;-76
2022/11/12 11:43:55;;;;;;;;;;;;;;;;;;5074950;28;19913;-76
2022/11/12 11:46:21;;;;;;;;;;;;;;;;;;5073261;28;20316;-77
2022/11/12 11:48:47;;;;;;;;;;;;;;;;;;5074221;28;19980;-78
2022/11/12 11:51:13;;;;;;;;;;;;;;;;;;5074604;28;19956;-78
2022/11/12 11:53:39;;;;;;;;;;;;;;;;;;5073860;28;19943;-78
2022/11/12 11:56:05;;;;;;;;;;;;;;;;;;5074706;28;20443;-78
2022/11/12 11:58:31;;;;;;;;;;;;;;;;;;5080812;28;19908;-76
2022/11/12 12:00:57;;;;;;;;;;;;;;;;;;5074951;28;20339;-77
2022/11/12 12:03:23;;;;;;;;;;;;;;;;;;5073778;28;19915;-77
2022/11/12 12:05:49;;;;;;;;;;;;;;;;;;5073824;28;19909;-77
2022/11/12 12:08:15;;;;;;;;;;;;;;;;;;5073547;28;19909;-77
2022/11/12 12:10:40;;;;;;;;;;;;;;;;;;5075255;28;19916;-78
2022/11/12 12:13:06;;;;;;;;;;;;;;;;;;5074967;28;19908;-76
2022/11/12 12:15:32;;;;;;;;;;;;;;;;;;5074395;28;19924;-75
2022/11/12 12:18:00;;;;;;;;;;;;;;;;;;5073413;28;19909;-78
2022/11/12 12:20:29;;;;;;;;;;;;;;;;;;5073917;28;19916;-78
2022/11/12 12:22:54;;;;;;;;;;;;;;;;;;5073769;28;19959;-77
2022/11/12 12:25:20;;;;;;;;;;;;;;;;;;5073440;28;19912;-77
2022/11/12 12:27:46;;;;;;;;;;;;;;;;;;5074701;28;19943;-78
2022/11/12 12:30:12;;;;;;;;;;;;;;;;;;5074023;28;19908;-77
2022/11/12 12:32:38;;;;;;;;;;;;;;;;;;5074095;28;20360;-77
2022/11/12 12:35:04;;;;;;;;;;;;;;;;;;5074912;28;19915;-77
2022/11/12 12:37:30;;;;;;;;;;;;;;;;;;5073767;28;20442;-78
2022/11/12 12:39:56;;;;;;;;;;;;;;;;;;5073896;28;19931;-78
2022/11/12 12:42:22;;;;;;;;;;;;;;;;;;5074014;28;19908;-77
2022/11/12 12:45:00;;;;;;;;;;;;;;;;;;5073608;28;19908;-78
2022/11/12 12:47:26;;;;;;;;;;;;;;;;;;5074095;28;19958;-77
2022/11/12 12:49:52;;;;;;;;;;;;;;;;;;5074350;28;19912;-76
2022/11/12 12:52:18;;;;;;;;;;;;;;;;;;5074625;28;19909;-77
2022/11/12 12:54:44;;;;;;;;;;;;;;;;;;5073509;28;20369;-76
2022/11/12 12:57:10;;;;;;;;;;;;;;;;;;5075102;28;20023;-77
2022/11/12 12:59:36;;;;;;;;;;;;;;;;;;5074735;28;19970;-78
2022/11/12 13:02:02;;;;;;;;;;;;;;;;;;5073319;28;19977;-76
2022/11/12 13:04:28;;;;;;;;;;;;;;;;;;5073193;28;19924;-77
2022/11/12 13:06:54;;;;;;;;;;;;;;;;;;5074873;28;19908;-78
2022/11/12 13:09:20;;;;;;;;;;;;;;;;;;5073251;28;19909;-79
2022/11/12 13:14:30;;;;;;;;;;;;;;;;;;5073504;28;19915;-78
2022/11/12 13:16:56;;;;;;;;;;;;;;;;;;5074836;28;19968;-76
2022/11/12 13:19:22;;;;;;;;;;;;;;;;;;5073686;28;20444;-77
2022/11/12 13:21:48;;;;;;;;;;;;;;;;;;5073443;28;19962;-77
2022/11/12 13:24:14;;;;;;;;;;;;;;;;;;5074786;28;19938;-77
2022/11/12 13:26:39;;;;;;;;;;;;;;;;;;5074299;28;19915;-77
2022/11/12 13:29:05;;;;;;;;;;;;;;;;;;5074704;28;19909;-77
2022/11/12 13:31:32;;;;;;;;;;;;;;;;;;5079014;28;19909;-79
2022/11/12 13:33:58;;;;;;;;;;;;;;;;;;5079076;28;19919;-78
2022/11/12 13:36:24;;;;;;;;;;;;;;;;;;5078578;28;19908;-77
2022/11/12 13:38:50;;;;;;;;;;;;;;;;;;5077098;28;19908;-77
2022/11/12 13:41:16;;;;;;;;;;;;;;;;;;5076866;28;20390;-78
2022/11/12 13:43:42;;;;;;;;;;;;;;;;;;5078841;28;19915;-78
2022/11/12 13:46:09;;;;;;;;;;;;;;;;;;5078366;28;19970;-77
2022/11/12 13:48:35;;;;;;;;;;;;;;;;;;5077571;28;20195;-77
2022/11/12 13:51:01;;;;;;;;;;;;;;;;;;5077794;28;19916;-77
2022/11/12 13:53:27;;;;;;;;;;;;;;;;;;5077541;28;20098;-78
2022/11/12 13:55:53;;;;;;;;;;;;;;;;;;5077407;28;19913;-77
2022/11/12 13:58:19;;;;;;;;;;;;;;;;;;5075504;28;20386;-77
2022/11/12 14:00:45;;;;;;;;;;;;;;;;;;5076780;28;19995;-77
2022/11/12 14:03:11;;;;;;;;;;;;;;;;;;5075785;28;19952;-77
2022/11/12 14:05:38;;;;;;;;;;;;;;;;;;5075532;28;20007;-77
2022/11/12 14:08:04;;;;;;;;;;;;;;;;;;5077130;28;19909;-77
2022/11/12 14:10:30;;;;;;;;;;;;;;;;;;5075679;28;20006;-77
2022/11/12 14:12:56;;;;;;;;;;;;;;;;;;5076459;28;20451;-76
2022/11/12 14:15:22;;;;;;;;;;;;;;;;;;5076353;28;19916;-77
2022/11/12 14:17:48;;;;;;;;;;;;;;;;;;5074982;28;20007;-77
2022/11/12 14:20:14;;;;;;;;;;;;;;;;;;5076048;28;19966;-77
2022/11/12 14:22:40;;;;;;;;;;;;;;;;;;5075947;28;19909;-76
2022/11/12 14:25:06;;;;;;;;;;;;;;;;;;5075247;28;19928;-77
2022/11/12 14:27:32;;;;;;;;;;;;;;;;;;5075539;28;20003;-77
2022/11/12 14:29:58;;;;;;;;;;;;;;;;;;5077818;28;20759;-77
2022/11/12 14:32:24;;;;;;;;;;;;;;;;;;5076184;28;20013;-77
2022/11/12 14:34:50;;;;;;;;;;;;;;;;;;5076635;28;19915;-76
2022/11/12 14:37:16;;;;;;;;;;;;;;;;;;5074779;28;19912;-77
2022/11/12 14:39:42;;;;;;;;;;;;;;;;;;5073307;28;20331;-76
2022/11/12 14:42:08;;;;;;;;;;;;;;;;;;5074063;28;19944;-77
2022/11/12 14:44:34;;;;;;;;;;;;;;;;;;5074348;28;19916;-76
2022/11/12 14:46:59;;;;;;;;;;;;;;;;;;5074983;28;20355;-76
2022/11/12 14:49:25;;;;;;;;;;;;;;;;;;5073010;28;20319;-76
2022/11/12 14:51:51;;;;;;;;;;;;;;;;;;5074111;28;19908;-76
2022/11/12 14:54:17;;;;;;;;;;;;;;;;;;5073927;28;20020;-77
2022/11/12 14:56:43;;;;;;;;;;;;;;;;;;5073214;28;19908;-75
2022/11/12 14:59:09;;;;;;;;;;;;;;;;;;5073818;28;19913;-77
2022/11/12 15:01:35;;;;;;;;;;;;;;;;;;5075769;28;19932;-77
2022/11/12 15:04:01;;;;;;;;;;;;;;;;;;5076588;28;19915;-78
2022/11/12 15:06:27;;;;;;;;;;;;;;;;;;5074701;28;19909;-77
2022/11/12 15:08:52;;;;;;;;;;;;;;;;;;5075754;28;19909;-77
2022/11/12 15:11:18;;;;;;;;;;;;;;;;;;5075392;28;19908;-76
2022/11/12 15:13:44;;;;;;;;;;;;;;;;;;5075617;28;19912;-76
2022/11/12 15:16:10;;;;;;;;;;;;;;;;;;5074696;28;19955;-76
2022/11/12 15:18:36;;;;;;;;;;;;;;;;;;5074104;28;19919;-77
2022/11/12 15:21:02;;;;;;;;;;;;;;;;;;5074037;28;19999;-76
2022/11/12 15:23:28;;;;;;;;;;;;;;;;;;5074733;28;19909;-78
2022/11/12 15:25:54;;;;;;;;;;;;;;;;;;5072865;28;19919;-77
2022/11/12 15:28:20;;;;;;;;;;;;;;;;;;5074595;28;20369;-77
2022/11/12 15:30:45;;;;;;;;;;;;;;;;;;5075458;28;19977;-78
2022/11/12 15:33:12;;;;;;;;;;;;;;;;;;5076354;28;20353;-77
2022/11/12 15:35:41;;;;;;;;;;;;;;;;;;5074644;28;19935;-77
2022/11/12 15:38:07;;;;;;;;;;;;;;;;;;5067800;28;19963;-77
2022/11/12 15:40:33;;;;;;;;;;;;;;;;;;5062877;28;20369;-75
2022/11/12 15:42:59;;;;;;;;;;;;;;;;;;5062645;28;19909;-75
2022/11/12 15:45:25;;;;;;;;;;;;;;;;;;5052316;28;20004;-75
2022/11/12 15:47:51;;;;;;;;;;;;;;;;;;5070589;28;19908;-77
2022/11/12 15:50:17;;;;;;;;;;;;;;;;;;5069663;28;19919;-76
2022/11/12 15:52:43;;;;;;;;;;;;;;;;;;5066164;28;19935;-78
2022/11/12 15:55:09;;;;;;;;;;;;;;;;;;5075707;28;19915;-79
2022/11/12 15:57:34;;;;;;;;;;;;;;;;;;5073364;28;19935;-77
2022/11/12 16:00:00;;;;;;;;;;;;;;;;;;5071076;28;19913;-75
2022/11/12 16:02:26;;;;;;;;;;;;;;;;;;5067592;28;19912;-76
2022/11/12 16:04:52;;;;;;;;;;;;;;;;;;5071597;28;19950;-75
2022/11/12 16:07:18;;;;;;;;;;;;;;;;;;5070391;28;19931;-76
2022/11/12 16:09:44;;;;;;;;;;;;;;;;;;5072905;28;19916;-78
2022/11/12 16:12:10;;;;;;;;;;;;;;;;;;5072498;28;19908;-76
2022/11/12 16:14:36;;;;;;;;;;;;;;;;;;5074078;28;19919;-76
2022/11/12 16:17:02;;;;;;;;;;;;;;;;;;5073106;28;19909;-76
2022/11/12 16:19:32;;;;;;;;;;;;;;;;;;5074060;28;20369;-77
2022/11/12 16:22:00;;;;;;;;;;;;;;;;;;5072888;28;20383;-76
2022/11/12 16:24:26;;;;;;;;;;;;;;;;;;5121394;22;19951;-76
2022/11/12 16:26:52;;;;;;;;;;;;;;;;;;5072470;28;19909;-77
2022/11/12 16:29:18;;;;;;;;;;;;;;;;;;5070838;28;20516;-77
2022/11/12 16:31:44;;;;;;;;;;;;;;;;;;5073035;28;19962;-79
2022/11/12 16:34:10;;;;;;;;;;;;;;;;;;5072085;28;19916;-80
2022/11/12 16:36:36;;;;;;;;;;;;;;;;;;5072927;28;19991;-78
2022/11/12 16:39:02;;;;;;;;;;;;;;;;;;5071025;28;20440;-77
2022/11/12 16:41:27;;;;;;;;;;;;;;;;;;5071175;28;19913;-77
2022/11/12 16:43:53;;;;;;;;;;;;;;;;;;5072732;28;20368;-79
2022/11/12 16:46:19;;;;;;;;;;;;;;;;;;5071131;28;19909;-76
2022/11/12 16:48:45;;;;;;;;;;;;;;;;;;5070991;28;20017;-76
2022/11/12 16:51:11;;;;;;;;;;;;;;;;;;5072291;28;19917;-77
2022/11/12 16:53:37;;;;;;;;;;;;;;;;;;5071170;28;20447;-76
2022/11/12 16:56:03;;;;;;;;;;;;;;;;;;5072485;28;19958;-77
2022/11/12 16:58:29;;;;;;;;;;;;;;;;;;5065075;28;20403;-77
2022/11/12 17:00:55;;;;;;;;;;;;;;;;;;5072043;28;19916;-77
2022/11/12 17:03:21;;;;;;;;;;;;;;;;;;5057859;28;19913;-77